Time;durP1;ratioP1;P1;durP2;ratioP2;P2;SDS_P1;SDS_P2;PMS_P1;PMS_P2;Temp;Humidity;BMP_temperature;BMP_pressure;BME280_temperature;BME280_humidity;BME280_pressure;Samples;Min_cycle;Max_cycle;Signal;HPM_P1;HPM_P2
2022/05/14 00:00:42;;;;;;;5.10;3.20;;;21.00;99.30;;;;;;4999952;28;20453;-89
2022/05/14 00:03:08;;;;;;;4.13;3.37;;;20.90;99.40;;;;;;5008246;28;20281;-90
2022/05/14 00:05:34;;;;;;;4.63;2.93;;;20.90;99.60;;;;;;4995010;28;20417;-89
2022/05/14 00:08:00;;;;;;;4.20;2.80;;;20.90;99.80;;;;;;4995682;28;20862;-90
2022/05/14 00:10:29;;;;;;;5.83;3.70;;;20.90;99.90;;;;;;4997006;28;20414;-89
2022/05/14 00:13:03;;;;;;;6.27;3.60;;;20.90;99.90;;;;;;4996233;28;20234;-89
2022/05/14 00:15:34;;;;;;;5.80;3.43;;;20.90;99.90;;;;;;4994978;28;20457;-92
2022/05/14 00:18:01;;;;;;;6.73;3.43;;;20.90;99.90;;;;;;4997036;28;20786;-89
2022/05/14 00:20:28;;;;;;;7.67;3.77;;;20.90;99.90;;;;;;4997778;28;20469;-90
2022/05/14 00:22:54;;;;;;;4.30;3.17;;;21.00;99.90;;;;;;4997120;28;20456;-92
2022/05/14 00:25:20;;;;;;;7.60;3.37;;;21.00;99.90;;;;;;4999605;28;20417;-90
2022/05/14 00:27:46;;;;;;;7.10;3.93;;;21.00;99.90;;;;;;4981980;28;20450;-91
2022/05/14 00:30:13;;;;;;;6.33;3.63;;;21.10;99.90;;;;;;4978383;28;20410;-93
2022/05/14 00:32:40;;;;;;;5.50;3.20;;;21.10;99.90;;;;;;4977864;28;20661;-90
2022/05/14 00:35:08;;;;;;;3.30;3.00;;;21.10;99.90;;;;;;4982082;28;20418;-92
2022/05/14 00:37:34;;;;;;;3.80;3.20;;;21.20;99.90;;;;;;4981785;28;20458;-90
2022/05/14 00:40:03;;;;;;;4.63;3.40;;;21.20;99.90;;;;;;4980491;28;20462;-91
2022/05/14 00:42:28;;;;;;;4.33;3.07;;;21.30;99.90;;;;;;4985755;28;20884;-90
2022/05/14 00:44:54;;;;;;;5.97;3.60;;;21.30;99.90;;;;;;4994613;28;20493;-92
2022/05/14 00:47:20;;;;;;;5.03;3.60;;;21.40;99.90;;;;;;4977203;28;20260;-90
2022/05/14 00:49:47;;;;;;;7.97;3.80;;;21.40;99.90;;;;;;4974752;28;20666;-90
2022/05/14 00:52:16;;;;;;;4.07;3.10;;;21.40;99.90;;;;;;4975048;28;20473;-93
2022/05/14 00:54:50;;;;;;;4.70;3.60;;;21.40;99.90;;;;;;4976948;28;20489;-93
2022/05/14 00:57:21;;;;;;;2.37;2.13;;;21.50;99.90;;;;;;4977323;28;20457;-91
2022/05/14 00:59:47;;;;;;;3.03;2.60;;;21.50;99.90;;;;;;4975937;28;20406;-92
2022/05/14 01:02:13;;;;;;;3.40;3.10;;;21.50;99.90;;;;;;4976051;28;20462;-93
2022/05/14 01:04:43;;;;;;;2.97;2.50;;;21.50;99.90;;;;;;4977474;28;20410;-89
2022/05/14 01:07:15;;;;;;;4.00;3.27;;;21.60;99.90;;;;;;4976846;28;20290;-92
2022/05/14 01:09:45;;;;;;;4.43;3.23;;;21.60;99.90;;;;;;4976522;28;20402;-89
2022/05/14 01:12:12;;;;;;;4.57;3.23;;;21.60;99.90;;;;;;4975212;28;20516;-92
2022/05/14 01:14:38;;;;;;;3.33;3.03;;;21.60;99.90;;;;;;4979535;28;20500;-89
2022/05/14 01:17:04;;;;;;;3.83;2.70;;;21.60;99.90;;;;;;4979174;28;20456;-92
2022/05/14 01:19:30;;;;;;;4.10;3.20;;;21.60;99.90;;;;;;4996781;28;20406;-90
2022/05/14 01:22:20;;;;;;;2.83;2.47;;;21.60;99.90;;;;;;4998387;28;20623;-92
2022/05/14 01:28:05;;;;;;;5.27;3.57;;;21.60;99.90;;;;;;5016440;28;20447;-89
2022/05/14 01:30:31;;;;;;;4.23;3.80;;;21.50;99.90;;;;;;5000526;28;20864;-89
2022/05/14 01:33:06;;;;;;;5.30;3.90;;;21.50;99.90;;;;;;5018740;28;20202;-90
2022/05/14 01:35:34;;;;;;;4.93;3.43;;;21.50;99.90;;;;;;5004104;28;20424;-92
2022/05/14 01:37:59;;;;;;;5.13;3.83;;;21.50;99.90;;;;;;5004155;28;20452;-90
2022/05/14 01:40:25;;;;;;;8.60;5.07;;;21.50;99.90;;;;;;5019223;28;20464;-90
2022/05/14 01:42:51;;;;;;;5.43;3.87;;;21.50;99.90;;;;;;4996668;28;20293;-92
2022/05/14 01:45:16;;;;;;;7.23;4.67;;;21.40;99.90;;;;;;4998437;28;20404;-91
2022/05/14 01:47:42;;;;;;;4.97;4.47;;;21.40;99.90;;;;;;5016052;28;20203;-91
2022/05/14 01:50:08;;;;;;;4.13;3.63;;;21.40;99.90;;;;;;4999464;28;20183;-92
2022/05/14 01:52:34;;;;;;;5.83;3.50;;;21.40;99.90;;;;;;4998547;28;20206;-92
2022/05/14 01:55:00;;;;;;;6.77;3.90;;;21.40;99.90;;;;;;5015582;28;20508;-90
2022/05/14 01:57:26;;;;;;;3.93;3.13;;;21.30;99.90;;;;;;4998286;28;20223;-93
2022/05/14 01:59:51;;;;;;;6.10;4.00;;;21.30;99.90;;;;;;5014796;28;20164;-89
2022/05/14 02:02:17;;;;;;;4.50;3.80;;;21.30;99.90;;;;;;4997541;28;20444;-90
2022/05/14 02:04:43;;;;;;;6.53;4.33;;;21.20;99.90;;;;;;4998367;28;20182;-90
2022/05/14 02:07:09;;;;;;;9.97;4.40;;;21.20;99.90;;;;;;4999010;28;20206;-90
2022/05/14 02:09:34;;;;;;;5.03;3.87;;;21.10;99.90;;;;;;4998335;28;20175;-92
2022/05/14 02:12:01;;;;;;;4.07;3.27;;;21.10;99.90;;;;;;5015957;28;20432;-89
2022/05/14 02:14:27;;;;;;;6.23;3.93;;;21.00;99.90;;;;;;4998136;28;20270;-90
2022/05/14 02:16:52;;;;;;;5.10;4.20;;;21.00;99.90;;;;;;4999286;28;20484;-92
2022/05/14 02:19:18;;;;;;;5.00;4.20;;;20.90;99.90;;;;;;4999277;28;20871;-91
2022/05/14 02:21:44;;;;;;;6.13;3.97;;;20.90;99.90;;;;;;4998093;28;20637;-92
2022/05/14 02:24:10;;;;;;;5.10;4.27;;;20.90;99.90;;;;;;4998608;28;20209;-89
2022/05/14 02:26:36;;;;;;;7.33;4.60;;;20.80;99.90;;;;;;4991034;28;20429;-92
2022/05/14 02:29:01;;;;;;;5.40;4.33;;;20.80;99.90;;;;;;4977845;28;20184;-90
2022/05/14 02:31:27;;;;;;;6.40;4.17;;;20.70;99.90;;;;;;4995885;28;20437;-90
2022/05/14 02:33:54;;;;;;;6.73;4.47;;;20.70;99.90;;;;;;4978338;28;20206;-89
2022/05/14 02:36:20;;;;;;;5.40;4.13;;;20.70;99.90;;;;;;4978755;28;20195;-93
2022/05/14 02:38:46;;;;;;;6.37;4.27;;;20.60;99.90;;;;;;4980591;28;20933;-91
2022/05/14 02:41:55;;;;;;;7.73;3.90;;;20.60;99.90;;;;;;4983268;28;20491;-90
2022/05/14 02:44:21;;;;;;;8.43;4.23;;;20.50;99.90;;;;;;5000080;28;20923;-90
2022/05/14 02:46:47;;;;;;;5.87;4.40;;;20.50;99.90;;;;;;4983221;28;20456;-92
2022/05/14 02:49:12;;;;;;;6.93;4.50;;;20.40;99.90;;;;;;4987737;28;20238;-91
2022/05/14 02:51:38;;;;;;;6.30;4.47;;;20.40;99.90;;;;;;4986229;28;20211;-90
2022/05/14 02:54:04;;;;;;;5.40;4.50;;;20.40;99.90;;;;;;4997538;28;20263;-90
2022/05/14 02:56:29;;;;;;;5.47;4.37;;;20.30;99.90;;;;;;4980377;28;20201;-90
2022/05/14 02:59:07;;;;;;;7.23;4.80;;;20.30;99.90;;;;;;4980427;28;20649;-90
2022/05/14 03:01:34;;;;;;;7.20;4.80;;;20.30;99.90;;;;;;4980244;28;20232;-89
2022/05/14 03:04:00;;;;;;;5.30;4.40;;;20.30;99.90;;;;;;4997755;28;20420;-93
2022/05/14 03:06:27;;;;;;;5.53;4.03;;;20.20;99.90;;;;;;4981566;28;20472;-90
2022/05/14 03:08:53;;;;;;;8.63;4.80;;;20.20;99.90;;;;;;4981357;28;20412;-90
2022/05/14 03:11:19;;;;;;;5.10;3.77;;;20.10;99.90;;;;;;4998285;28;20536;-92
2022/05/14 03:13:45;;;;;;;4.87;4.23;;;20.10;99.90;;;;;;4980658;28;20435;-91
2022/05/14 03:16:11;;;;;;;5.97;4.33;;;20.10;99.90;;;;;;4997645;28;20543;-91
2022/05/14 03:18:37;;;;;;;6.43;4.20;;;20.00;99.90;;;;;;4980828;28;20195;-91
2022/05/14 03:21:03;;;;;;;6.50;5.00;;;19.90;99.90;;;;;;4998563;28;20614;-92
2022/05/14 03:23:29;;;;;;;4.63;3.90;;;19.90;99.90;;;;;;4980873;28;21026;-91
2022/05/14 03:25:55;;;;;;;5.43;4.67;;;19.90;99.90;;;;;;4999095;28;20412;-92
2022/05/14 03:28:20;;;;;;;7.37;4.10;;;19.80;99.90;;;;;;4999893;28;20433;-89
2022/05/14 03:30:47;;;;;;;4.53;4.10;;;19.80;99.90;;;;;;5000240;28;20182;-91
2022/05/14 03:33:13;;;;;;;4.33;3.93;;;19.70;99.90;;;;;;5000797;28;20565;-93
2022/05/14 03:35:38;;;;;;;5.87;4.43;;;19.70;99.90;;;;;;5018388;28;20412;-89
2022/05/14 03:38:04;;;;;;;6.10;4.63;;;19.60;99.90;;;;;;5017984;28;20541;-92
2022/05/14 03:40:30;;;;;;;7.83;4.20;;;19.60;99.90;;;;;;5000770;28;20209;-89
2022/05/14 03:42:55;;;;;;;4.20;3.80;;;19.60;99.90;;;;;;5019973;28;20256;-92
2022/05/14 03:45:21;;;;;;;7.93;5.10;;;19.60;99.90;;;;;;5002249;28;20184;-91
2022/05/14 03:47:47;;;;;;;7.13;5.40;;;19.60;99.90;;;;;;5020411;28;20209;-93
2022/05/14 03:50:13;;;;;;;7.97;5.17;;;19.60;99.90;;;;;;5021334;28;20539;-90
2022/05/14 03:52:39;;;;;;;6.43;4.70;;;19.50;99.90;;;;;;5004248;28;20680;-92
2022/05/14 03:55:05;;;;;;;5.33;4.63;;;19.50;99.90;;;;;;4998755;28;20420;-91
2022/05/14 03:57:31;;;;;;;6.63;4.60;;;19.50;99.90;;;;;;4998683;28;20213;-91
2022/05/14 03:59:57;;;;;;;6.73;4.67;;;19.50;99.90;;;;;;4998218;28;20411;-91
2022/05/14 04:02:23;;;;;;;7.00;4.20;;;19.50;99.90;;;;;;4998557;28;20217;-90
2022/05/14 04:04:49;;;;;;;5.23;3.53;;;19.50;99.90;;;;;;4998402;28;20204;-89
2022/05/14 04:07:15;;;;;;;5.00;4.00;;;19.50;99.90;;;;;;5016917;28;20442;-91
2022/05/14 04:09:40;;;;;;;6.17;4.67;;;19.50;99.90;;;;;;4999794;28;20411;-91
2022/05/14 04:12:07;;;;;;;6.10;4.57;;;19.50;99.90;;;;;;5000194;28;20561;-89
2022/05/14 04:14:32;;;;;;;4.40;3.80;;;19.40;99.90;;;;;;4999338;28;20178;-90
2022/05/14 04:16:58;;;;;;;7.90;3.90;;;19.50;99.90;;;;;;5017406;28;20467;-90
2022/05/14 04:19:25;;;;;;;8.63;4.30;;;19.50;99.90;;;;;;5017776;28;20174;-92
2022/05/14 04:21:51;;;;;;;7.23;5.10;;;19.50;99.90;;;;;;4999676;28;20824;-89
2022/05/14 04:24:17;;;;;;;4.50;4.10;;;19.50;99.90;;;;;;5018755;28;20413;-93
2022/05/14 04:26:43;;;;;;;5.80;5.00;;;19.60;99.90;;;;;;5001050;28;20205;-90
2022/05/14 04:29:08;;;;;;;6.60;4.40;;;19.60;99.90;;;;;;4985707;28;20181;-90
2022/05/14 04:31:35;;;;;;;6.30;4.50;;;19.60;99.90;;;;;;4996484;28;20597;-93
2022/05/14 04:34:01;;;;;;;6.70;5.03;;;19.60;99.90;;;;;;4978672;28;20413;-90
2022/05/14 04:36:27;;;;;;;5.97;4.40;;;19.70;99.90;;;;;;4979320;28;20437;-90
2022/05/14 04:38:52;;;;;;;5.50;4.50;;;19.70;99.90;;;;;;4996963;28;20477;-89
2022/05/14 04:41:18;;;;;;;7.47;4.47;;;19.70;99.90;;;;;;4996257;28;20208;-90
2022/05/14 04:43:44;;;;;;;7.63;5.07;;;19.70;99.90;;;;;;4980419;28;20529;-88
2022/05/14 04:46:10;;;;;;;7.20;4.60;;;19.80;99.90;;;;;;4997174;28;20316;-90
2022/05/14 04:48:37;;;;;;;6.03;4.87;;;19.80;99.90;;;;;;4996703;28;20197;-90
2022/05/14 04:51:03;;;;;;;6.77;5.10;;;19.90;99.90;;;;;;4980196;28;20187;-89
2022/05/14 04:53:30;;;;;;;9.00;4.93;;;19.90;99.90;;;;;;4980116;28;20503;-91
2022/05/14 04:55:56;;;;;;;7.20;5.00;;;19.90;99.90;;;;;;4981933;28;20792;-90
2022/05/14 04:58:21;;;;;;;4.90;4.07;;;19.90;99.90;;;;;;4980012;28;20439;-92
2022/05/14 05:00:48;;;;;;;6.00;4.77;;;20.00;99.90;;;;;;4980146;28;20261;-90
2022/05/14 05:03:16;;;;;;;5.10;4.60;;;20.00;99.90;;;;;;4997047;28;20285;-90
2022/05/14 05:05:47;;;;;;;10.23;5.13;;;20.00;99.90;;;;;;4997079;28;20417;-92
2022/05/14 05:08:13;;;;;;;6.40;4.60;;;20.10;99.90;;;;;;4981129;28;20483;-92
2022/05/14 05:10:40;;;;;;;5.90;5.10;;;20.10;99.90;;;;;;4986587;28;20413;-93
2022/05/14 05:13:11;;;;;;;6.90;4.87;;;20.20;99.90;;;;;;4987762;28;20445;-90
2022/05/14 05:15:38;;;;;;;6.47;5.00;;;20.20;99.90;;;;;;4995330;28;20461;-93
2022/05/14 05:18:04;;;;;;;5.90;4.60;;;20.20;99.90;;;;;;4995364;28;20444;-91
2022/05/14 05:20:30;;;;;;;6.67;5.07;;;20.30;99.90;;;;;;4995740;28;20972;-89
2022/05/14 05:22:56;;;;;;;6.70;5.07;;;20.30;99.90;;;;;;4978327;28;20514;-92
2022/05/14 05:25:22;;;;;;;7.37;5.10;;;20.40;99.90;;;;;;4978612;28;20179;-92
2022/05/14 05:27:47;;;;;;;7.20;6.10;;;20.40;99.90;;;;;;5011922;28;20207;-92
2022/05/14 05:30:13;;;;;;;5.40;4.63;;;20.40;99.90;;;;;;4997942;28;20171;-90
2022/05/14 05:32:39;;;;;;;5.33;4.80;;;20.50;99.90;;;;;;4997635;28;20199;-90
2022/05/14 05:35:06;;;;;;;6.87;5.47;;;20.50;99.90;;;;;;4998202;28;20912;-89
2022/05/14 05:37:31;;;;;;;8.63;5.80;;;20.60;99.90;;;;;;5015769;28;20676;-93
2022/05/14 05:39:57;;;;;;;5.90;4.33;;;20.60;99.90;;;;;;5016017;28;20435;-89
2022/05/14 05:42:23;;;;;;;6.27;4.70;;;20.70;99.90;;;;;;4998431;28;20210;-89
2022/05/14 05:44:51;;;;;;;4.93;4.43;;;20.80;99.90;;;;;;5015574;28;20400;-90
2022/05/14 05:47:17;;;;;;;8.10;4.73;;;20.80;99.90;;;;;;4998390;28;20291;-90
2022/05/14 05:49:43;;;;;;;6.40;5.40;;;20.80;99.90;;;;;;5000512;28;20420;-89
2022/05/14 05:52:11;;;;;;;6.80;6.10;;;20.90;99.90;;;;;;5002141;28;20517;-90
2022/05/14 05:57:33;;;;;;;7.30;5.50;;;20.90;99.90;;;;;;5016548;28;20550;-89
2022/05/14 06:00:00;;;;;;;5.10;4.50;;;21.00;99.90;;;;;;4998701;28;20404;-90
2022/05/14 06:02:26;;;;;;;6.93;5.60;;;21.10;99.90;;;;;;5015101;28;20448;-93
2022/05/14 06:04:52;;;;;;;8.13;5.50;;;21.10;99.90;;;;;;5014296;28;20492;-90
2022/05/14 06:07:18;;;;;;;5.30;4.80;;;21.20;99.90;;;;;;4997539;28;20464;-93
2022/05/14 06:09:44;;;;;;;7.23;5.03;;;21.20;99.90;;;;;;4997897;28;20604;-92
2022/05/14 06:12:10;;;;;;;7.00;4.83;;;21.30;99.90;;;;;;4998061;28;20451;-91
2022/05/14 06:14:36;;;;;;;5.77;5.17;;;21.30;99.90;;;;;;5019957;28;20456;-92
2022/05/14 06:17:02;;;;;;;6.53;5.77;;;21.40;99.90;;;;;;5003207;28;20452;-90
2022/05/14 06:19:27;;;;;;;5.83;4.37;;;21.50;99.90;;;;;;5021054;28;20405;-88
2022/05/14 06:21:53;;;;;;;5.10;4.60;;;21.50;99.90;;;;;;5021232;28;20317;-89
2022/05/14 06:24:19;;;;;;;5.20;4.70;;;21.60;99.90;;;;;;5022018;28;20183;-90
2022/05/14 06:26:44;;;;;;;6.83;5.30;;;21.70;99.90;;;;;;4994183;28;20203;-89
2022/05/14 06:29:10;;;;;;;6.67;5.13;;;21.70;99.90;;;;;;4999023;28;20719;-89
2022/05/14 06:31:36;;;;;;;8.70;6.10;;;21.80;99.90;;;;;;4999729;28;20179;-91
2022/05/14 06:34:02;;;;;;;8.87;5.67;;;21.80;99.90;;;;;;4983126;28;20409;-91
2022/05/14 06:36:28;;;;;;;5.00;4.57;;;21.90;99.90;;;;;;4999268;28;20922;-89
2022/05/14 06:38:54;;;;;;;6.50;5.10;;;22.00;99.90;;;;;;4982274;28;20432;-89
2022/05/14 06:41:20;;;;;;;6.17;4.43;;;22.10;99.90;;;;;;4981559;28;20488;-89
2022/05/14 06:43:46;;;;;;;11.03;5.03;;;22.10;99.90;;;;;;4981301;28;20238;-89
2022/05/14 06:46:12;;;;;;;7.23;5.00;;;22.20;99.90;;;;;;4981971;28;20191;-89
2022/05/14 06:48:38;;;;;;;6.13;5.30;;;22.20;99.90;;;;;;4982134;28;20224;-92
2022/05/14 06:51:11;;;;;;;6.07;4.70;;;22.30;99.90;;;;;;5000161;28;20472;-89
2022/05/14 06:53:39;;;;;;;5.50;5.00;;;22.40;99.90;;;;;;4982051;28;20517;-92
2022/05/14 06:56:08;;;;;;;4.73;4.23;;;22.40;99.90;;;;;;4980526;28;20792;-92
2022/05/14 06:58:37;;;;;;;5.30;4.60;;;22.50;99.90;;;;;;4991923;28;20452;-90
2022/05/14 07:01:04;;;;;;;5.53;5.03;;;22.60;99.90;;;;;;4990333;28;20866;-89
2022/05/14 07:09:01;;;;;;;8.17;5.00;;;22.80;99.90;;;;;;4996345;28;20416;-92
2022/05/14 07:11:27;;;;;;;5.20;4.70;;;22.90;99.90;;;;;;4979775;28;20430;-90
2022/05/14 07:13:53;;;;;;;6.07;4.37;;;23.00;99.90;;;;;;4997213;28;20926;-91
2022/05/14 07:16:19;;;;;;;4.47;3.93;;;23.00;99.90;;;;;;4980255;28;20709;-92
2022/05/14 07:18:45;;;;;;;5.67;4.47;;;23.10;99.90;;;;;;4980678;28;20183;-90
2022/05/14 07:21:10;;;;;;;5.53;4.20;;;23.20;99.90;;;;;;4980136;28;20251;-92
2022/05/14 07:23:36;;;;;;;3.73;3.43;;;23.30;99.90;;;;;;4980304;28;20510;-90
2022/05/14 07:26:07;;;;;;;4.20;3.90;;;23.30;99.90;;;;;;5000274;28;20177;-89
2022/05/14 07:28:34;;;;;;;4.13;3.70;;;23.40;99.90;;;;;;5017469;28;20242;-92
2022/05/14 07:31:01;;;;;;;5.03;4.53;;;23.50;99.90;;;;;;5019284;28;20424;-92
2022/05/14 07:33:27;;;;;;;4.50;4.10;;;23.60;99.90;;;;;;5020656;28;20453;-92
2022/05/14 07:35:55;;;;;;;5.10;3.70;;;23.70;99.90;;;;;;5028098;28;20406;-90
2022/05/14 07:38:21;;;;;;;4.47;4.07;;;23.80;99.90;;;;;;4998941;28;20438;-92
2022/05/14 07:40:47;;;;;;;6.87;3.67;;;23.80;99.90;;;;;;5016336;28;20463;-92
2022/05/14 07:43:21;;;;;;;5.43;4.47;;;23.90;99.90;;;;;;4999187;28;20441;-90
2022/05/14 07:45:55;;;;;;;4.90;4.20;;;24.00;99.90;;;;;;5016213;28;20166;-90
2022/05/14 07:48:27;;;;;;;4.97;3.90;;;24.10;99.90;;;;;;4998859;28;20440;-89
2022/05/14 07:50:53;;;;;;;4.10;3.67;;;24.10;99.90;;;;;;4998914;28;20791;-90
2022/05/14 07:53:20;;;;;;;6.40;3.63;;;24.20;99.90;;;;;;5016000;28;20439;-89
2022/05/14 07:55:47;;;;;;;4.50;4.10;;;24.30;99.90;;;;;;4999285;28;20940;-92
2022/05/14 07:58:13;;;;;;;4.67;3.90;;;24.40;99.90;;;;;;4999297;28;20523;-91
2022/05/14 08:00:40;;;;;;;5.83;4.53;;;24.40;99.90;;;;;;4998767;28;21002;-92
2022/05/14 08:03:06;;;;;;;3.67;3.37;;;24.50;99.90;;;;;;4998683;28;20436;-89
2022/05/14 08:05:32;;;;;;;3.93;3.50;;;24.60;99.90;;;;;;4998888;28;20415;-90
2022/05/14 08:07:58;;;;;;;3.80;3.50;;;24.60;99.90;;;;;;5016498;28;20807;-91
2022/05/14 08:10:24;;;;;;;7.00;3.70;;;24.70;99.90;;;;;;4999584;28;20558;-89
2022/05/14 08:12:54;;;;;;;3.03;2.83;;;24.80;99.90;;;;;;4999655;28;20526;-89
2022/05/14 08:15:22;;;;;;;6.00;3.30;;;24.90;99.90;;;;;;5016540;28;20499;-91
2022/05/14 08:17:48;;;;;;;4.97;3.60;;;25.00;99.90;;;;;;4999216;28;20456;-92
2022/05/14 08:20:14;;;;;;;3.70;3.20;;;25.00;99.90;;;;;;5001204;28;20407;-92
2022/05/14 08:25:26;;;;;;;3.77;3.37;;;25.20;99.90;;;;;;5026163;28;20913;-92
2022/05/14 08:27:52;;;;;;;6.30;3.13;;;25.30;99.90;;;;;;4981192;28;20511;-91
2022/05/14 08:30:25;;;;;;;3.40;3.10;;;25.40;99.90;;;;;;4996323;28;20413;-91
2022/05/14 08:32:51;;;;;;;3.37;3.07;;;25.50;99.90;;;;;;4979323;28;20551;-89
2022/05/14 08:35:18;;;;;;;4.23;3.30;;;25.50;99.90;;;;;;4978794;28;20493;-91
2022/05/14 08:37:45;;;;;;;3.20;2.90;;;25.50;99.90;;;;;;4979155;28;20449;-89
2022/05/14 08:40:24;;;;;;;3.77;3.30;;;25.60;99.90;;;;;;4978913;28;20464;-89
2022/05/14 08:42:54;;;;;;;3.00;2.80;;;25.60;99.90;;;;;;4979704;28;20540;-89
2022/05/14 08:45:23;;;;;;;3.43;3.13;;;25.60;99.90;;;;;;4979741;28;20468;-92
2022/05/14 08:47:56;;;;;;;5.03;2.73;;;25.70;99.90;;;;;;4979829;28;20864;-92
2022/05/14 08:50:30;;;;;;;3.57;3.27;;;25.80;99.90;;;;;;4981676;28;20769;-89
2022/05/14 08:53:00;;;;;;;4.87;3.53;;;25.80;99.90;;;;;;4997795;28;20433;-89
2022/05/14 08:55:32;;;;;;;3.33;2.83;;;25.90;99.30;;;;;;4981420;28;20432;-89
2022/05/14 08:58:01;;;;;;;3.90;2.90;;;25.90;99.40;;;;;;4999101;28;20571;-91
2022/05/14 09:00:27;;;;;;;4.67;3.60;;;26.00;99.70;;;;;;4989591;28;20453;-89
2022/05/14 09:02:54;;;;;;;3.87;3.30;;;26.00;98.90;;;;;;4980380;28;20461;-91
2022/05/14 09:05:20;;;;;;;3.33;3.03;;;26.10;99.10;;;;;;4978986;28;20210;-92
2022/05/14 09:07:46;;;;;;;3.60;3.30;;;26.20;98.40;;;;;;4979289;28;20453;-90
2022/05/14 09:10:40;;;;;;;5.70;3.47;;;26.20;97.80;;;;;;4979045;28;20199;-91
2022/05/14 09:13:17;;;;;;;3.77;3.47;;;26.30;97.80;;;;;;4994463;28;20448;-92
2022/05/14 09:15:56;;;;;;;3.33;3.07;;;26.40;97.10;;;;;;4995533;28;20464;-89
2022/05/14 09:18:25;;;;;;;3.57;3.27;;;26.40;97.20;;;;;;4979087;28;20507;-89
2022/05/14 09:20:57;;;;;;;3.63;3.33;;;26.40;96.00;;;;;;4996126;28;20519;-89
2022/05/14 09:23:44;;;;;;;6.70;3.70;;;26.40;96.10;;;;;;4996795;28;20483;-92
2022/05/14 09:26:17;;;;;;;3.10;2.80;;;26.40;95.80;;;;;;4981836;28;20450;-92
2022/05/14 09:28:52;;;;;;;3.10;2.80;;;26.40;95.30;;;;;;5015899;28;20397;-89
2022/05/14 09:31:24;;;;;;;3.37;3.07;;;26.40;94.50;;;;;;4998190;28;20428;-91
2022/05/14 09:34:01;;;;;;;3.53;3.23;;;26.30;94.50;;;;;;5017115;28;20476;-91
2022/05/14 09:36:28;;;;;;;3.27;2.97;;;26.40;94.50;;;;;;4999810;28;20486;-92
2022/05/14 09:39:10;;;;;;;3.23;2.97;;;26.40;94.30;;;;;;5005615;28;20451;-89
2022/05/14 09:41:50;;;;;;;5.07;3.57;;;26.40;94.60;;;;;;5002825;28;20530;-92
2022/05/14 09:44:21;;;;;;;4.47;3.40;;;26.40;94.80;;;;;;5001992;28;20786;-90
2022/05/14 09:46:47;;;;;;;5.93;3.00;;;26.40;93.90;;;;;;4996569;28;20487;-89
2022/05/14 09:49:20;;;;;;;3.17;2.70;;;26.40;93.70;;;;;;4999026;28;20462;-91
2022/05/14 09:51:51;;;;;;;3.70;3.40;;;26.50;93.60;;;;;;5001137;28;20487;-92
2022/05/14 09:54:23;;;;;;;2.90;2.70;;;26.50;93.60;;;;;;5000863;28;20408;-92
2022/05/14 09:57:07;;;;;;;5.10;3.47;;;26.50;93.30;;;;;;5001481;28;20507;-92
2022/05/14 10:00:13;;;;;;;4.03;3.63;;;26.50;93.40;;;;;;5002787;28;20420;-89
2022/05/14 10:03:12;;;;;;;5.10;4.63;;;26.50;92.80;;;;;;4926165;29;20463;-90
2022/05/14 10:05:59;;;;;;;3.53;3.23;;;26.50;93.20;;;;;;5002449;28;20792;-88
2022/05/14 10:09:03;;;;;;;3.10;2.80;;;26.50;92.20;;;;;;5022620;28;20436;-92
2022/05/14 10:11:33;;;;;;;3.20;3.00;;;26.60;91.70;;;;;;5004567;28;20428;-90
2022/05/14 10:14:29;;;;;;;5.03;3.50;;;26.60;91.40;;;;;;5000234;28;20423;-89
2022/05/14 10:17:09;;;;;;;4.23;3.27;;;26.60;91.30;;;;;;5015798;28;20468;-92
2022/05/14 10:19:50;;;;;;;3.53;3.20;;;26.50;91.60;;;;;;5000573;28;20897;-92
2022/05/14 10:29:15;;;;;;;4.10;3.33;;;26.40;92.20;;;;;;4998746;28;20397;-89
2022/05/14 10:32:05;;;;;;;3.30;2.93;;;26.50;91.60;;;;;;4981225;28;20555;-92
2022/05/14 10:34:55;;;;;;;3.63;3.03;;;26.50;91.10;;;;;;4983423;28;20782;-90
2022/05/14 10:37:27;;;;;;;3.73;2.93;;;26.40;90.50;;;;;;4983259;28;20461;-89
2022/05/14 10:40:14;;;;;;;3.40;3.10;;;26.40;90.10;;;;;;4984498;28;20413;-92
2022/05/14 10:42:59;;;;;;;3.50;3.20;;;26.40;89.60;;;;;;4985349;28;20515;-91
2022/05/14 10:45:38;;;;;;;3.27;2.97;;;26.40;88.80;;;;;;4999216;28;20769;-92
2022/05/14 10:48:32;;;;;;;2.80;2.60;;;26.40;89.40;;;;;;4998088;28;20421;-93
2022/05/14 10:51:00;;;;;;;2.80;2.60;;;26.40;89.90;;;;;;4981320;28;20460;-91
2022/05/14 10:53:26;;;;;;;3.33;2.63;;;26.50;87.20;;;;;;4998384;28;20434;-89
2022/05/14 10:56:09;;;;;;;3.43;2.93;;;26.50;87.00;;;;;;4998515;28;20829;-89
2022/05/14 10:58:56;;;;;;;2.80;2.60;;;26.60;86.90;;;;;;4981300;28;20468;-92
2022/05/14 11:01:48;;;;;;;2.90;2.60;;;26.60;87.10;;;;;;4999612;28;20899;-89
2022/05/14 11:04:27;;;;;;;3.43;2.73;;;26.60;86.80;;;;;;4991320;28;20430;-89
2022/05/14 11:07:01;;;;;;;3.43;3.13;;;26.70;86.40;;;;;;5002563;28;20441;-92
2022/05/14 11:09:42;;;;;;;2.70;2.50;;;26.70;85.60;;;;;;4979724;28;20429;-89
2022/05/14 11:12:19;;;;;;;5.43;2.87;;;26.70;86.40;;;;;;4980406;28;20476;-93
2022/05/14 11:14:53;;;;;;;3.70;3.00;;;26.70;86.60;;;;;;4979980;28;20465;-89
2022/05/14 11:17:34;;;;;;;2.67;2.23;;;26.70;87.90;;;;;;4980921;28;20453;-90
2022/05/14 11:20:03;;;;;;;3.00;2.70;;;26.70;86.10;;;;;;4998143;28;20489;-92
2022/05/14 11:22:41;;;;;;;2.70;2.50;;;26.70;85.30;;;;;;4980754;28;20501;-89
2022/05/14 11:25:11;;;;;;;3.77;2.30;;;26.70;83.50;;;;;;4980407;28;20398;-91
2022/05/14 11:27:39;;;;;;;2.73;2.53;;;26.70;84.80;;;;;;4996758;28;21001;-89
2022/05/14 11:30:10;;;;;;;3.83;2.20;;;26.70;81.30;;;;;;5002412;28;20989;-91
2022/05/14 11:32:49;;;;;;;2.93;1.97;;;26.70;80.10;;;;;;5003199;28;20476;-93
2022/05/14 11:35:16;;;;;;;2.07;1.87;;;26.80;81.10;;;;;;5009793;28;20491;-92
2022/05/14 11:37:45;;;;;;;3.23;2.27;;;26.80;80.40;;;;;;5025634;28;20425;-92
2022/05/14 11:40:20;;;;;;;2.43;1.90;;;26.90;79.30;;;;;;5021803;28;20914;-89
2022/05/14 11:42:49;;;;;;;1.73;1.63;;;26.90;81.80;;;;;;5016686;28;20444;-92
2022/05/14 11:45:28;;;;;;;2.30;2.00;;;26.90;82.20;;;;;;4998693;28;20409;-92
2022/05/14 11:48:18;;;;;;;2.37;1.93;;;27.00;81.00;;;;;;5016559;28;20455;-90
2022/05/14 11:50:53;;;;;;;1.77;1.67;;;27.00;76.90;;;;;;4998860;28;20416;-89
2022/05/14 11:53:46;;;;;;;2.60;1.80;;;27.00;76.90;;;;;;5016677;28;20933;-90
2022/05/14 11:56:33;;;;;;;2.10;1.83;;;27.00;78.40;;;;;;4999367;28;20436;-92
2022/05/14 11:59:10;;;;;;;4.00;2.00;;;27.10;75.10;;;;;;4999283;28;20444;-90
2022/05/14 12:01:40;;;;;;;4.43;1.43;;;27.10;74.50;;;;;;4998999;28;20645;-93
2022/05/14 12:04:14;;;;;;;3.57;2.77;;;27.10;74.60;;;;;;4998912;28;20773;-90
2022/05/14 12:07:03;;;;;;;1.90;1.70;;;27.10;73.40;;;;;;4999224;28;20539;-90
2022/05/14 12:09:55;;;;;;;2.10;1.90;;;27.00;74.10;;;;;;4998822;28;20409;-89
2022/05/14 12:13:21;;;;;;;2.30;1.83;;;27.00;73.60;;;;;;5012115;28;20480;-92
2022/05/14 12:15:56;;;;;;;2.23;2.03;;;27.00;75.70;;;;;;4921577;29;20543;-91
2022/05/14 12:18:23;;;;;;;1.77;1.67;;;27.10;74.50;;;;;;4937353;29;20807;-90
2022/05/14 12:20:58;;;;;;;2.50;2.10;;;27.10;76.30;;;;;;4960535;28;20480;-93
2022/05/14 12:23:38;;;;;;;3.10;2.57;;;27.10;73.80;;;;;;4995970;28;20460;-92
2022/05/14 12:26:23;;;;;;;2.20;1.93;;;27.20;73.90;;;;;;5016473;28;20482;-91
2022/05/14 12:28:49;;;;;;;2.50;1.83;;;27.20;74.20;;;;;;5009686;28;20400;-89
2022/05/14 12:34:02;;;;;;;1.83;1.70;;;27.20;73.20;;;;;;5018304;28;20925;-92
2022/05/14 12:36:34;;;;;;;1.90;1.70;;;27.20;72.70;;;;;;5008183;28;20794;-91
2022/05/14 12:39:06;;;;;;;6.47;2.47;;;27.20;74.50;;;;;;4997358;28;20795;-91
2022/05/14 12:41:41;;;;;;;1.63;1.53;;;27.20;73.50;;;;;;5015372;28;20922;-92
2022/05/14 12:44:29;;;;;;;7.03;2.23;;;27.20;73.30;;;;;;5014004;28;20388;-89
2022/05/14 12:46:58;;;;;;;2.60;2.40;;;27.20;73.00;;;;;;4997183;28;20456;-89
2022/05/14 12:49:28;;;;;;;1.90;1.60;;;27.30;73.10;;;;;;5015167;28;20412;-91
2022/05/14 12:52:04;;;;;;;5.40;1.93;;;27.30;72.10;;;;;;4998836;28;20969;-90
2022/05/14 12:54:33;;;;;;;1.90;1.77;;;27.30;72.00;;;;;;4998450;28;20427;-92
2022/05/14 12:57:02;;;;;;;5.00;2.10;;;27.30;71.40;;;;;;5016711;28;20909;-92
2022/05/14 12:59:28;;;;;;;2.23;2.03;;;27.30;71.30;;;;;;5016171;28;20401;-92
2022/05/14 13:02:01;;;;;;;1.97;1.87;;;27.20;70.80;;;;;;4998820;28;20568;-92
2022/05/14 13:04:36;;;;;;;3.37;2.50;;;27.20;71.30;;;;;;4999376;28;20464;-89
2022/05/14 13:07:03;;;;;;;4.03;2.10;;;27.20;71.50;;;;;;5017432;28;20453;-89
2022/05/14 13:09:30;;;;;;;1.90;1.70;;;27.30;71.70;;;;;;5000886;28;20417;-92
2022/05/14 13:11:57;;;;;;;1.90;1.70;;;27.30;71.80;;;;;;5024431;28;20539;-92
2022/05/14 13:14:31;;;;;;;1.67;1.57;;;27.30;73.00;;;;;;5002977;28;20424;-89
2022/05/14 13:16:58;;;;;;;2.57;1.67;;;27.30;71.80;;;;;;5014401;28;20448;-90
2022/05/14 13:19:40;;;;;;;3.37;1.73;;;27.40;72.30;;;;;;5014574;28;20467;-92
2022/05/14 13:22:26;;;;;;;2.40;1.60;;;27.30;71.50;;;;;;4996760;28;20495;-92
2022/05/14 13:24:53;;;;;;;3.03;2.33;;;27.40;71.90;;;;;;4997331;28;20519;-93
2022/05/14 13:27:36;;;;;;;3.60;2.10;;;27.40;71.60;;;;;;5014801;28;20540;-90